createdAt,value
2022-12-20T00:00:15.576Z,1.40
2022-12-20T00:02:45.173Z,1.50
2022-12-20T00:05:15.513Z,1.50
2022-12-20T00:07:44.241Z,1.50
2022-12-20T00:10:13.760Z,1.50
2022-12-20T00:12:42.654Z,1.50
2022-12-20T00:15:12.195Z,1.60
2022-12-20T00:17:41.514Z,1.60
2022-12-20T00:20:11.939Z,1.60
2022-12-20T00:22:42.121Z,1.60
2022-12-20T00:25:11.399Z,1.60
2022-12-20T00:27:40.134Z,1.60
2022-12-20T00:30:10.080Z,1.60
2022-12-20T00:32:38.949Z,1.60
2022-12-20T00:35:08.284Z,1.70
2022-12-20T00:37:37.286Z,1.70
2022-12-20T00:40:09.208Z,1.70
2022-12-20T00:42:37.770Z,1.70
2022-12-20T00:45:07.733Z,1.80
2022-12-20T00:47:36.468Z,1.80
2022-12-20T00:50:05.689Z,1.80
2022-12-20T00:52:34.378Z,1.90
2022-12-20T00:55:03.090Z,1.90
2022-12-20T00:57:33.299Z,1.90
2022-12-20T01:00:02.376Z,1.90
2022-12-20T01:02:31.180Z,1.90
2022-12-20T01:05:01.344Z,1.90
2022-12-20T01:07:30.047Z,1.90
2022-12-20T01:09:58.989Z,1.90
2022-12-20T01:12:27.627Z,2.00
2022-12-20T01:14:57.727Z,2.00
2022-12-20T01:17:26.456Z,2.00
2022-12-20T01:19:55.288Z,2.10
2022-12-20T01:22:24.064Z,2.00
2022-12-20T01:24:53.170Z,2.00
2022-12-20T01:27:21.960Z,2.10
2022-12-20T01:29:50.738Z,2.10
2022-12-20T01:32:22.342Z,2.00
2022-12-20T01:34:50.998Z,2.00
2022-12-20T01:37:19.924Z,1.90
2022-12-20T01:39:48.661Z,1.90
2022-12-20T01:42:18.117Z,1.90
2022-12-20T01:44:58.475Z,1.80
2022-12-20T01:47:32.893Z,1.80
2022-12-20T01:50:04.304Z,1.80
2022-12-20T01:52:37.443Z,1.80
2022-12-20T01:55:11.690Z,1.80
2022-12-20T01:57:46.076Z,1.80
2022-12-20T02:00:16.372Z,1.80
2022-12-20T02:02:48.069Z,1.70
2022-12-20T02:05:18.027Z,1.80
2022-12-20T02:07:50.574Z,1.80
2022-12-20T02:10:22.084Z,1.70
2022-12-20T02:12:55.544Z,1.70
2022-12-20T02:15:36.778Z,1.70
2022-12-20T02:18:17.827Z,1.70
2022-12-20T02:21:17.736Z,1.70
2022-12-20T02:24:28.041Z,1.80
2022-12-20T02:27:29.454Z,1.80
2022-12-20T02:30:07.759Z,1.80
2022-12-20T02:32:42.040Z,1.80
2022-12-20T02:35:14.476Z,1.90
2022-12-20T02:37:51.315Z,1.90
2022-12-20T02:40:24.866Z,1.90
2022-12-20T02:42:58.791Z,2.00
2022-12-20T02:45:34.138Z,2.00
2022-12-20T02:48:07.006Z,2.00
2022-12-20T02:50:40.026Z,2.00
2022-12-20T02:53:09.707Z,2.10
2022-12-20T02:55:46.879Z,2.10
2022-12-20T02:58:25.951Z,2.10
2022-12-20T03:01:04.601Z,2.10
2022-12-20T03:03:34.132Z,2.10
2022-12-20T03:06:03.660Z,2.10
2022-12-20T03:08:32.569Z,2.10
2022-12-20T03:11:02.395Z,2.10
2022-12-20T03:13:33.087Z,2.10
2022-12-20T03:16:08.822Z,2.10
2022-12-20T03:18:37.893Z,2.20
2022-12-20T03:21:06.923Z,2.20
2022-12-20T03:23:35.708Z,2.20
2022-12-20T03:26:04.466Z,2.20
2022-12-20T03:28:41.310Z,2.20
2022-12-20T03:31:13.319Z,2.20
2022-12-20T03:33:48.160Z,2.30
2022-12-20T03:36:16.809Z,2.20
2022-12-20T03:38:45.771Z,2.30
2022-12-20T03:41:14.918Z,2.30
2022-12-20T03:43:43.703Z,2.30
2022-12-20T03:46:15.243Z,2.30
2022-12-20T03:48:44.313Z,2.30
2022-12-20T03:51:14.128Z,2.30
2022-12-20T03:53:42.848Z,2.30
2022-12-20T03:56:12.955Z,2.40
2022-12-20T03:58:42.910Z,2.40
2022-12-20T04:01:25.063Z,2.40
2022-12-20T04:03:54.831Z,2.40
2022-12-20T04:06:24.673Z,2.40
2022-12-20T04:08:53.504Z,2.40
2022-12-20T04:11:28.440Z,2.50
2022-12-20T04:14:13.332Z,2.50
2022-12-20T04:16:43.560Z,2.50
2022-12-20T04:19:13.309Z,2.50
2022-12-20T04:21:48.631Z,2.40
2022-12-20T04:24:19.680Z,2.40
2022-12-20T04:26:57.278Z,2.40
2022-12-20T04:29:26.028Z,2.40
2022-12-20T04:31:56.472Z,2.40
2022-12-20T04:34:25.125Z,2.40
2022-12-20T04:36:54.177Z,2.40
2022-12-20T04:39:33.089Z,2.40
2022-12-20T04:42:17.448Z,2.40
2022-12-20T04:44:46.292Z,2.30
2022-12-20T04:47:19.620Z,2.30
2022-12-20T04:49:48.401Z,2.30
2022-12-20T04:52:40.849Z,2.40
2022-12-20T04:55:12.214Z,2.40
2022-12-20T04:57:40.827Z,2.40
2022-12-20T05:00:10.647Z,2.40
2022-12-20T05:02:45.640Z,2.40
2022-12-20T05:05:17.710Z,2.40
2022-12-20T05:07:51.304Z,2.50
2022-12-20T05:10:20.944Z,2.50
2022-12-20T05:12:50.840Z,2.50
2022-12-20T05:15:30.637Z,2.50
2022-12-20T05:18:02.153Z,2.40
2022-12-20T05:20:40.425Z,2.40
2022-12-20T05:23:27.910Z,2.40
2022-12-20T05:26:18.552Z,2.30
2022-12-20T05:28:48.127Z,2.30
2022-12-20T05:31:16.961Z,2.30
2022-12-20T05:33:47.340Z,2.20
2022-12-20T05:36:17.665Z,2.20
2022-12-20T05:38:46.945Z,2.20
2022-12-20T05:41:19.303Z,2.30
2022-12-20T05:43:50.804Z,2.30
2022-12-20T05:46:19.800Z,2.20
2022-12-20T05:48:56.997Z,2.20
2022-12-20T05:51:51.465Z,2.20
2022-12-20T05:54:25.639Z,2.10
2022-12-20T05:57:11.514Z,2.10
2022-12-20T05:59:42.583Z,2.10
2022-12-20T06:02:19.822Z,2.00
2022-12-20T06:04:53.543Z,2.00
2022-12-20T06:07:24.453Z,2.10
2022-12-20T06:09:58.175Z,2.00
2022-12-20T06:13:02.430Z,2.10
2022-12-20T06:15:32.629Z,2.20
2022-12-20T06:18:02.768Z,2.20
2022-12-20T06:20:33.188Z,2.30
2022-12-20T06:23:04.019Z,2.30
2022-12-20T06:25:39.944Z,2.30
2022-12-20T06:28:33.479Z,2.30
2022-12-20T06:31:02.329Z,2.40
2022-12-20T06:33:52.987Z,2.40
2022-12-20T06:36:25.084Z,2.40
2022-12-20T06:38:54.495Z,2.40
2022-12-20T06:41:23.292Z,2.40
2022-12-20T06:43:53.483Z,2.40
2022-12-20T06:46:22.339Z,2.50
2022-12-20T06:48:54.895Z,2.50
2022-12-20T06:51:25.265Z,2.50
2022-12-20T06:53:54.167Z,2.50
2022-12-20T06:56:23.792Z,2.60
2022-12-20T06:58:52.649Z,2.60
2022-12-20T07:01:21.585Z,2.60
2022-12-20T07:03:50.660Z,2.60
2022-12-20T07:06:19.313Z,2.70
2022-12-20T07:08:53.328Z,2.70
2022-12-20T07:11:21.931Z,2.80
2022-12-20T07:13:52.451Z,2.80
2022-12-20T07:16:21.152Z,2.80
2022-12-20T07:18:51.267Z,2.80
2022-12-20T07:21:20.447Z,2.80
2022-12-20T07:23:49.642Z,2.80
2022-12-20T07:26:19.693Z,2.80
2022-12-20T07:28:48.541Z,2.90
2022-12-20T07:31:17.262Z,2.90
2022-12-20T07:33:45.820Z,2.90
2022-12-20T07:36:17.103Z,2.90
2022-12-20T07:38:45.890Z,2.90
2022-12-20T07:41:17.269Z,3.00
2022-12-20T07:43:48.456Z,3.00
2022-12-20T07:46:17.752Z,3.00
2022-12-20T07:48:46.491Z,3.10
2022-12-20T07:51:19.327Z,3.10
2022-12-20T07:53:53.987Z,3.10
2022-12-20T07:56:24.366Z,3.20
2022-12-20T07:58:58.622Z,3.20
2022-12-20T08:01:28.454Z,3.30
2022-12-20T08:04:02.275Z,3.40
2022-12-20T08:06:31.778Z,3.40
2022-12-20T08:09:04.158Z,3.50
2022-12-20T08:11:38.392Z,3.50
2022-12-20T08:14:09.699Z,3.50
2022-12-20T08:16:38.763Z,3.60
2022-12-20T08:19:07.570Z,3.60
2022-12-20T08:21:36.393Z,3.70
2022-12-20T08:24:05.276Z,3.70
2022-12-20T08:26:38.038Z,3.80
2022-12-20T08:29:08.819Z,3.90
2022-12-20T08:31:44.438Z,4.00
2022-12-20T08:34:16.605Z,4.10
2022-12-20T08:36:45.396Z,4.30
2022-12-20T08:39:14.121Z,4.40
2022-12-20T08:41:42.922Z,4.60
2022-12-20T08:44:13.035Z,4.70
2022-12-20T08:46:42.900Z,4.80
2022-12-20T08:49:11.585Z,4.90
2022-12-20T08:51:40.561Z,5.00
2022-12-20T08:54:09.251Z,5.10
2022-12-20T08:56:37.967Z,5.20
2022-12-20T08:59:07.347Z,5.20
2022-12-20T09:01:37.614Z,5.20
2022-12-20T09:04:07.281Z,5.30
2022-12-20T09:06:37.064Z,5.30
2022-12-20T09:09:07.178Z,5.30
2022-12-20T09:11:36.143Z,5.40
2022-12-20T09:14:05.373Z,5.40
2022-12-20T09:16:36.454Z,5.50
2022-12-20T09:19:06.619Z,5.60
2022-12-20T09:21:36.324Z,5.60
2022-12-20T09:24:05.695Z,5.70
2022-12-20T09:26:35.445Z,5.70
2022-12-20T09:29:05.321Z,5.80
2022-12-20T09:31:34.191Z,5.80
2022-12-20T09:34:04.521Z,5.90
2022-12-20T09:36:33.651Z,5.90
2022-12-20T09:39:02.236Z,5.90
2022-12-20T09:41:34.903Z,5.90
2022-12-20T09:44:12.548Z,5.90
2022-12-20T09:46:42.437Z,5.90
2022-12-20T09:49:17.519Z,5.90
2022-12-20T09:52:09.236Z,5.90
2022-12-20T09:54:45.909Z,5.90
2022-12-20T09:57:25.832Z,5.80
2022-12-20T09:59:58.175Z,5.80
2022-12-20T10:05:24.179Z,5.70
2022-12-20T10:08:00.922Z,5.70
2022-12-20T10:10:45.781Z,5.70
2022-12-20T10:13:30.715Z,5.60
2022-12-20T10:16:06.384Z,5.60
2022-12-20T10:18:49.702Z,5.60
2022-12-20T10:21:27.744Z,5.60
2022-12-20T10:24:02.706Z,5.70
2022-12-20T10:26:33.779Z,5.70
2022-12-20T10:29:02.529Z,5.80
2022-12-20T10:31:31.343Z,5.80
2022-12-20T10:33:59.950Z,5.80
2022-12-20T10:36:32.084Z,5.80
2022-12-20T10:39:02.523Z,6.00
2022-12-20T10:41:33.842Z,6.00
2022-12-20T10:44:04.823Z,6.10
2022-12-20T10:46:39.505Z,6.20
2022-12-20T10:49:31.382Z,6.30
2022-12-20T10:52:04.542Z,6.50
2022-12-20T10:54:36.208Z,6.60
2022-12-20T10:57:15.477Z,6.70
2022-12-20T10:59:47.386Z,6.80
2022-12-20T11:02:39.347Z,7.00
2022-12-20T11:05:24.301Z,7.10
2022-12-20T11:10:47.141Z,7.40
2022-12-20T11:13:26.004Z,7.50
2022-12-20T11:16:01.782Z,7.60
2022-12-20T11:18:45.041Z,7.60
2022-12-20T11:21:28.555Z,7.60
2022-12-20T11:24:07.263Z,7.50
2022-12-20T11:26:50.666Z,7.40
2022-12-20T11:29:39.060Z,7.30
2022-12-20T11:32:18.154Z,7.30
2022-12-20T11:35:00.945Z,7.30
2022-12-20T11:37:36.320Z,7.30
2022-12-20T11:40:23.391Z,7.40
2022-12-20T11:43:02.630Z,7.40
2022-12-20T11:45:40.099Z,7.40
2022-12-20T11:48:47.492Z,7.40
2022-12-20T11:51:26.997Z,7.40
2022-12-20T11:54:00.396Z,7.40
2022-12-20T11:56:43.263Z,7.40
2022-12-20T11:59:20.559Z,7.30
2022-12-20T12:01:57.994Z,7.30
2022-12-20T12:04:31.886Z,7.30
2022-12-20T12:07:04.995Z,7.30
2022-12-20T12:09:38.196Z,7.30
2022-12-20T12:12:14.109Z,7.30
2022-12-20T12:14:53.677Z,7.20
2022-12-20T12:17:31.193Z,7.20
2022-12-20T12:20:16.324Z,7.20
2022-12-20T12:22:46.693Z,7.20
2022-12-20T12:25:19.340Z,7.20
2022-12-20T12:27:49.828Z,7.20
2022-12-20T12:30:19.244Z,7.30
2022-12-20T12:32:54.016Z,7.30
2022-12-20T12:35:56.813Z,7.30
2022-12-20T12:38:56.945Z,7.40
2022-12-20T12:42:04.162Z,7.50
2022-12-20T12:44:41.892Z,7.60
2022-12-20T12:47:18.246Z,7.70
2022-12-20T12:49:51.587Z,7.90
2022-12-20T12:52:44.040Z,8.00
2022-12-20T12:55:41.441Z,8.10
2022-12-20T12:58:35.630Z,8.30
2022-12-20T13:01:09.108Z,8.30
2022-12-20T13:03:47.702Z,8.30
2022-12-20T13:06:46.051Z,8.30
2022-12-20T13:09:23.638Z,8.40
2022-12-20T13:12:00.427Z,8.40
2022-12-20T13:14:51.322Z,8.40
2022-12-20T13:17:49.885Z,8.20
2022-12-20T13:20:24.273Z,8.20
2022-12-20T13:23:17.947Z,8.10
2022-12-20T13:25:49.756Z,8.00
2022-12-20T13:28:47.061Z,7.90
2022-12-20T13:31:33.940Z,7.70
2022-12-20T13:34:04.349Z,7.50
2022-12-20T13:36:37.306Z,7.50
2022-12-20T13:39:35.206Z,7.40
2022-12-20T13:42:32.268Z,7.30
2022-12-20T13:45:05.670Z,7.30
2022-12-20T13:47:39.023Z,7.20
2022-12-20T13:50:38.794Z,7.10
2022-12-20T13:53:16.434Z,7.10
2022-12-20T13:55:45.411Z,7.10
2022-12-20T13:58:17.716Z,7.10
2022-12-20T14:00:47.792Z,7.20
2022-12-20T14:03:26.302Z,7.10
2022-12-20T14:06:00.373Z,7.10
2022-12-20T14:08:33.050Z,7.10
2022-12-20T14:11:12.534Z,7.10
2022-12-20T14:13:41.839Z,7.10
2022-12-20T14:16:14.944Z,7.10
2022-12-20T14:18:44.505Z,7.00
2022-12-20T14:21:14.815Z,6.90
2022-12-20T14:23:47.695Z,6.90
2022-12-20T14:26:19.788Z,6.90
2022-12-20T14:28:50.807Z,6.80
2022-12-20T14:31:28.162Z,6.70
2022-12-20T14:34:05.009Z,6.60
2022-12-20T14:36:36.289Z,6.50
2022-12-20T14:39:27.865Z,6.40
2022-12-20T14:42:00.766Z,6.40
2022-12-20T14:44:31.510Z,6.30
2022-12-20T14:47:02.075Z,6.30
2022-12-20T14:49:32.263Z,6.30
2022-12-20T14:52:15.853Z,6.30
2022-12-20T14:57:42.238Z,6.20
2022-12-20T15:00:22.700Z,6.10
2022-12-20T15:03:02.921Z,6.00
2022-12-20T15:05:52.014Z,5.90
2022-12-20T15:08:27.435Z,5.90
2022-12-20T15:11:00.033Z,5.80
2022-12-20T15:13:34.824Z,5.70
2022-12-20T15:16:05.786Z,5.70
2022-12-20T15:18:35.026Z,5.60
2022-12-20T15:21:09.256Z,5.50
2022-12-20T15:23:45.321Z,5.50
2022-12-20T15:26:17.009Z,5.50
2022-12-20T15:28:45.746Z,5.40
2022-12-20T15:31:16.739Z,5.40
2022-12-20T15:33:47.594Z,5.30
2022-12-20T15:36:19.415Z,5.30
2022-12-20T15:41:42.052Z,5.30
2022-12-20T15:44:15.718Z,5.20
2022-12-20T15:46:44.899Z,5.20
2022-12-20T15:49:17.020Z,5.20
2022-12-20T15:51:47.947Z,5.20
2022-12-20T15:54:24.297Z,5.10
2022-12-20T15:56:53.409Z,5.10
2022-12-20T15:59:58.200Z,5.10
2022-12-20T16:02:22.495Z,5.10
2022-12-20T16:04:51.770Z,5.00
2022-12-20T16:07:20.527Z,5.00
2022-12-20T16:09:50.685Z,5.00
2022-12-20T16:12:24.049Z,5.00
2022-12-20T16:14:52.702Z,5.00
2022-12-20T16:17:21.436Z,4.90
2022-12-20T16:19:50.152Z,4.90
2022-12-20T16:22:22.259Z,4.90
2022-12-20T16:24:53.076Z,4.90
2022-12-20T16:27:21.973Z,4.90
2022-12-20T16:29:53.628Z,4.90
2022-12-20T16:32:23.519Z,4.90
2022-12-20T16:34:52.716Z,4.90
2022-12-20T16:37:21.478Z,4.80
2022-12-20T16:39:51.666Z,4.80
2022-12-20T16:42:22.688Z,4.80
2022-12-20T16:44:53.334Z,4.70
2022-12-20T16:47:22.468Z,4.70
2022-12-20T16:49:53.853Z,4.70
2022-12-20T16:52:23.850Z,4.70
2022-12-20T16:54:54.043Z,4.60
2022-12-20T16:57:22.726Z,4.60
2022-12-20T16:59:51.519Z,4.60
2022-12-20T17:02:25.660Z,4.50
2022-12-20T17:04:54.366Z,4.50
2022-12-20T17:07:23.486Z,4.40
2022-12-20T17:09:59.588Z,4.30
2022-12-20T17:12:28.267Z,4.30
2022-12-20T17:15:00.797Z,4.20
2022-12-20T17:17:29.558Z,4.20
2022-12-20T17:19:58.945Z,4.10
2022-12-20T17:22:39.906Z,4.10
2022-12-20T17:25:19.844Z,4.00
2022-12-20T17:27:48.817Z,3.90
2022-12-20T17:30:17.762Z,3.90
2022-12-20T17:32:46.508Z,3.80
2022-12-20T17:35:25.775Z,3.80
2022-12-20T17:37:56.327Z,3.80
2022-12-20T17:40:30.894Z,3.80
2022-12-20T17:42:59.695Z,3.80
2022-12-20T17:45:48.315Z,3.70
2022-12-20T17:48:19.167Z,3.80
2022-12-20T17:50:47.869Z,3.70
2022-12-20T17:53:16.538Z,3.70
2022-12-20T17:55:46.662Z,3.70
2022-12-20T17:58:15.949Z,3.70
2022-12-20T18:00:44.746Z,3.70
2022-12-20T18:03:45.125Z,3.70
2022-12-20T18:06:07.737Z,3.70
2022-12-20T18:08:37.051Z,3.80
2022-12-20T18:11:07.509Z,3.90
2022-12-20T18:13:36.277Z,3.90
2022-12-20T18:16:08.817Z,3.90
2022-12-20T18:18:37.605Z,4.00
2022-12-20T18:21:08.191Z,4.10
2022-12-20T18:23:37.580Z,4.10
2022-12-20T18:26:10.053Z,4.20
2022-12-20T18:28:38.816Z,4.20
2022-12-20T18:31:09.339Z,4.30
2022-12-20T18:33:39.598Z,4.30
2022-12-20T18:36:10.532Z,4.30
2022-12-20T18:38:41.549Z,4.30
2022-12-20T18:41:15.023Z,4.30
2022-12-20T18:43:43.913Z,4.30
2022-12-20T18:46:14.605Z,4.30
2022-12-20T18:48:45.431Z,4.30
2022-12-20T18:51:21.115Z,4.30
2022-12-20T18:53:51.745Z,4.30
2022-12-20T18:56:25.013Z,4.30
2022-12-20T18:58:54.199Z,4.30
2022-12-20T19:01:25.390Z,4.20
2022-12-20T19:03:55.308Z,4.20
2022-12-20T19:06:25.121Z,4.20
2022-12-20T19:08:53.928Z,4.20
2022-12-20T19:11:25.413Z,4.10
2022-12-20T19:13:54.213Z,4.10
2022-12-20T19:16:28.209Z,4.00
2022-12-20T19:18:58.632Z,4.00
2022-12-20T19:21:29.696Z,3.90
2022-12-20T19:24:49.201Z,3.90
2022-12-20T19:27:19.204Z,3.80
2022-12-20T19:29:49.977Z,3.80
2022-12-20T19:32:18.802Z,3.80
2022-12-20T19:34:47.445Z,3.80
2022-12-20T19:37:16.310Z,3.80
2022-12-20T19:39:45.041Z,3.80
2022-12-20T19:42:29.161Z,3.80
2022-12-20T19:45:03.251Z,3.90
2022-12-20T19:47:33.756Z,3.90
2022-12-20T19:50:02.525Z,4.00
2022-12-20T19:52:31.267Z,3.90
2022-12-20T19:55:00.253Z,4.00
2022-12-20T19:57:29.092Z,4.00
2022-12-20T20:00:24.788Z,3.90
2022-12-20T20:02:59.393Z,3.90
2022-12-20T20:05:28.452Z,3.90
2022-12-20T20:07:57.144Z,3.90
2022-12-20T20:10:26.117Z,3.90
2022-12-20T20:13:24.098Z,3.90
2022-12-20T20:15:56.178Z,4.00
2022-12-20T20:18:26.002Z,4.00
2022-12-20T20:20:55.122Z,4.00
2022-12-20T20:23:26.251Z,4.00
2022-12-20T20:25:57.996Z,4.00
2022-12-20T20:28:31.900Z,4.00
2022-12-20T20:31:04.530Z,4.10
2022-12-20T20:33:33.707Z,4.10
2022-12-20T20:36:03.178Z,4.10
2022-12-20T20:38:34.265Z,4.10
2022-12-20T20:41:03.068Z,4.10
2022-12-20T20:43:37.777Z,4.10
2022-12-20T20:46:11.621Z,4.10
2022-12-20T20:48:41.199Z,4.20
2022-12-20T20:51:10.391Z,4.20
2022-12-20T20:53:39.502Z,4.20
2022-12-20T20:56:09.790Z,4.20
2022-12-20T20:58:39.589Z,4.20
2022-12-20T21:01:10.380Z,4.20
2022-12-20T21:03:40.311Z,4.20
2022-12-20T21:08:59.013Z,4.20
2022-12-20T21:11:28.924Z,4.30
2022-12-20T21:13:58.243Z,4.30
2022-12-20T21:16:28.635Z,4.30
2022-12-20T21:18:59.268Z,4.30
2022-12-20T21:21:29.094Z,4.30
2022-12-20T21:23:57.823Z,4.30
2022-12-20T21:26:26.931Z,4.30
2022-12-20T21:28:58.731Z,4.30
2022-12-20T21:31:29.047Z,4.30
2022-12-20T21:33:58.338Z,4.30
2022-12-20T21:36:27.258Z,4.40
2022-12-20T21:38:57.651Z,4.40
2022-12-20T21:41:28.558Z,4.40
2022-12-20T21:43:58.085Z,4.40
2022-12-20T21:46:32.003Z,4.40
2022-12-20T21:49:01.326Z,4.50
2022-12-20T21:51:31.740Z,4.50
2022-12-20T21:54:02.229Z,4.40
2022-12-20T21:56:34.260Z,4.50
2022-12-20T21:59:04.069Z,4.50
2022-12-20T22:01:34.475Z,4.50
2022-12-20T22:04:05.539Z,4.50
2022-12-20T22:06:34.756Z,4.60
2022-12-20T22:09:06.881Z,4.60
2022-12-20T22:11:36.798Z,4.60
2022-12-20T22:14:05.522Z,4.60
2022-12-20T22:16:36.352Z,4.60
2022-12-20T22:19:05.954Z,4.50
2022-12-20T22:21:36.953Z,4.50
2022-12-20T22:24:06.373Z,4.40
2022-12-20T22:26:36.003Z,4.40
2022-12-20T22:29:06.942Z,4.40
2022-12-20T22:31:37.900Z,4.40
2022-12-20T22:34:06.774Z,4.40
2022-12-20T22:36:35.933Z,4.40
2022-12-20T22:39:05.600Z,4.30
2022-12-20T22:41:35.967Z,4.30
2022-12-20T22:44:05.081Z,4.30
2022-12-20T22:46:33.815Z,4.30
2022-12-20T22:49:04.528Z,4.20
2022-12-20T22:51:34.012Z,4.20
2022-12-20T22:54:02.985Z,4.20
2022-12-20T22:56:31.682Z,4.20
2022-12-20T22:59:00.418Z,4.20
2022-12-20T23:01:29.302Z,4.10
2022-12-20T23:03:58.070Z,4.10
2022-12-20T23:06:30.723Z,4.10
2022-12-20T23:08:59.526Z,4.00
2022-12-20T23:11:47.380Z,3.90
2022-12-20T23:14:35.204Z,3.90
2022-12-20T23:17:04.756Z,3.80
2022-12-20T23:19:54.264Z,3.80
2022-12-20T23:22:40.472Z,3.80
2022-12-20T23:25:11.921Z,3.70
2022-12-20T23:27:41.470Z,3.70
2022-12-20T23:30:12.792Z,3.80
2022-12-20T23:32:44.763Z,3.80
2022-12-20T23:35:14.206Z,3.80
2022-12-20T23:37:45.630Z,3.80
2022-12-20T23:40:16.389Z,3.80
2022-12-20T23:42:45.279Z,3.80
2022-12-20T23:45:14.095Z,3.80
2022-12-20T23:47:42.748Z,3.80
2022-12-20T23:50:12.044Z,3.80
2022-12-20T23:52:40.808Z,3.80
2022-12-20T23:55:11.429Z,3.90
2022-12-20T23:57:40.137Z,3.90
